createdAt,value
2022-12-12T00:00:17.906Z,7.90
2022-12-12T00:02:50.443Z,8.45
2022-12-12T00:05:22.588Z,7.60
2022-12-12T00:07:55.229Z,7.72
2022-12-12T00:10:27.225Z,8.40
2022-12-12T00:12:59.820Z,8.18
2022-12-12T00:15:31.812Z,6.88
2022-12-12T00:18:04.271Z,7.32
2022-12-12T00:20:36.639Z,9.40
2022-12-12T00:23:09.049Z,6.80
2022-12-12T00:25:40.982Z,6.80
2022-12-12T00:28:13.331Z,6.43
2022-12-12T00:30:45.302Z,7.20
2022-12-12T00:33:17.790Z,7.50
2022-12-12T00:35:54.997Z,6.90
2022-12-12T00:38:27.334Z,6.90
2022-12-12T00:41:01.050Z,7.40
2022-12-12T00:43:33.839Z,8.40
2022-12-12T00:46:06.021Z,8.63
2022-12-12T00:48:38.409Z,8.07
2022-12-12T00:51:13.885Z,7.88
2022-12-12T00:53:48.526Z,8.82
2022-12-12T00:56:22.436Z,7.05
2022-12-12T00:58:54.848Z,8.23
2022-12-12T01:01:29.777Z,6.87
2022-12-12T01:04:02.375Z,6.90
2022-12-12T01:06:34.364Z,8.00
2022-12-12T01:09:06.855Z,7.93
2022-12-12T01:11:38.782Z,8.07
2022-12-12T01:14:12.502Z,6.93
2022-12-12T01:16:44.495Z,7.68
2022-12-12T01:19:16.857Z,7.65
2022-12-12T01:21:48.769Z,6.97
2022-12-12T01:24:21.115Z,6.40
2022-12-12T01:26:52.997Z,6.30
2022-12-12T01:29:25.450Z,7.55
2022-12-12T01:31:57.376Z,7.18
2022-12-12T01:34:29.787Z,6.82
2022-12-12T01:37:01.731Z,6.78
2022-12-12T01:39:34.980Z,6.43
2022-12-12T01:42:15.394Z,6.03
2022-12-12T01:44:54.054Z,6.07
2022-12-12T01:47:26.684Z,6.53
2022-12-12T01:50:09.011Z,7.25
2022-12-12T01:52:47.006Z,6.07
2022-12-12T01:55:23.317Z,5.35
2022-12-12T01:57:55.454Z,5.38
2022-12-12T02:00:27.997Z,5.82
2022-12-12T02:02:59.986Z,5.53
2022-12-12T02:05:49.388Z,5.93
2022-12-12T02:08:23.314Z,5.85
2022-12-12T02:10:55.989Z,6.22
2022-12-12T02:13:31.627Z,6.38
2022-12-12T02:16:12.294Z,5.97
2022-12-12T02:19:13.833Z,5.77
2022-12-12T02:22:19.278Z,5.70
2022-12-12T02:25:34.521Z,6.00
2022-12-12T02:29:08.149Z,5.70
2022-12-12T02:32:16.199Z,5.63
2022-12-12T02:35:12.628Z,6.40
2022-12-12T02:38:05.860Z,5.90
2022-12-12T02:41:01.585Z,5.72
2022-12-12T02:44:13.013Z,8.00
2022-12-12T02:47:17.668Z,9.10
2022-12-12T02:50:07.584Z,8.23
2022-12-12T02:52:42.991Z,7.00
2022-12-12T02:55:16.934Z,8.65
2022-12-12T02:57:50.954Z,8.73
2022-12-12T03:00:22.978Z,11.60
2022-12-12T03:03:42.774Z,7.37
2022-12-12T03:07:07.998Z,7.15
2022-12-12T03:10:24.875Z,8.15
2022-12-12T03:13:36.802Z,8.40
2022-12-12T03:16:39.007Z,9.35
2022-12-12T03:19:20.834Z,11.13
2022-12-12T03:22:07.263Z,7.18
2022-12-12T03:24:58.615Z,5.60
2022-12-12T03:27:37.342Z,5.25
2022-12-12T03:30:17.164Z,5.38
2022-12-12T03:33:04.213Z,5.00
2022-12-12T03:35:44.878Z,5.60
2022-12-12T03:38:27.193Z,6.63
2022-12-12T03:41:04.975Z,6.13
2022-12-12T03:43:48.721Z,6.00
2022-12-12T03:46:40.944Z,7.67
2022-12-12T03:49:28.457Z,9.45
2022-12-12T03:52:15.740Z,10.07
2022-12-12T03:55:12.745Z,9.27
2022-12-12T03:58:00.812Z,9.98
2022-12-12T04:00:37.651Z,10.73
2022-12-12T04:03:36.068Z,10.30
2022-12-12T04:06:28.680Z,10.13
2022-12-12T04:09:30.600Z,11.05
2022-12-12T04:12:48.773Z,12.73
2022-12-12T04:15:47.221Z,10.10
2022-12-12T04:18:53.615Z,9.63
2022-12-12T04:21:56.472Z,10.13
2022-12-12T04:24:49.339Z,10.93
2022-12-12T04:27:44.922Z,11.35
2022-12-12T04:30:17.459Z,9.57
2022-12-12T04:33:11.282Z,10.95
2022-12-12T04:35:48.997Z,11.50
2022-12-12T04:38:24.523Z,10.73
2022-12-12T04:40:59.002Z,11.48
2022-12-12T04:43:37.774Z,9.60
2022-12-12T04:46:19.093Z,9.48
2022-12-12T04:48:56.426Z,8.48
2022-12-12T04:51:35.449Z,8.00
2022-12-12T04:54:16.481Z,9.13
2022-12-12T04:56:57.283Z,8.00
2022-12-12T04:59:29.898Z,8.13
2022-12-12T05:02:30.652Z,8.15
2022-12-12T05:05:19.082Z,9.02
2022-12-12T05:08:21.633Z,8.20
2022-12-12T05:10:57.989Z,9.33
2022-12-12T05:13:34.727Z,7.85
2022-12-12T05:16:32.460Z,9.77
2022-12-12T05:19:05.620Z,7.93
2022-12-12T05:21:37.498Z,9.20
2022-12-12T05:24:10.464Z,8.70
2022-12-12T05:26:42.814Z,7.75
2022-12-12T05:29:14.724Z,8.82
2022-12-12T05:31:47.487Z,7.93
2022-12-12T05:34:21.421Z,7.53
2022-12-12T05:36:57.451Z,7.73
2022-12-12T05:39:29.339Z,6.80
2022-12-12T05:42:02.418Z,7.75
2022-12-12T05:44:34.481Z,7.60
2022-12-12T05:47:07.612Z,7.72
2022-12-12T05:49:40.055Z,8.20
2022-12-12T05:52:13.378Z,8.52
2022-12-12T05:54:54.286Z,8.35
2022-12-12T05:57:31.220Z,8.93
2022-12-12T06:00:05.514Z,8.43
2022-12-12T06:02:39.514Z,9.50
2022-12-12T06:05:11.909Z,9.48
2022-12-12T06:07:44.845Z,9.98
2022-12-12T06:10:16.782Z,9.00
2022-12-12T06:12:49.184Z,9.52
2022-12-12T06:15:21.165Z,8.90
2022-12-12T06:17:53.728Z,8.90
2022-12-12T06:20:25.974Z,9.50
2022-12-12T06:22:59.238Z,9.27
2022-12-12T06:25:31.345Z,9.82
2022-12-12T06:28:04.213Z,9.50
2022-12-12T06:30:36.099Z,9.05
2022-12-12T06:33:08.811Z,9.80
2022-12-12T06:35:44.555Z,9.80
2022-12-12T06:38:16.938Z,9.75
2022-12-12T06:40:48.820Z,10.63
2022-12-12T06:43:21.946Z,10.85
2022-12-12T06:46:02.639Z,10.70
2022-12-12T06:48:37.000Z,10.48
2022-12-12T06:51:13.579Z,11.48
2022-12-12T06:53:46.828Z,11.27
2022-12-12T06:56:25.154Z,11.05
2022-12-12T06:59:01.040Z,10.95
2022-12-12T07:01:34.428Z,9.85
2022-12-12T07:04:07.339Z,10.95
2022-12-12T07:06:39.639Z,9.40
2022-12-12T07:09:13.454Z,9.02
2022-12-12T07:11:47.612Z,9.98
2022-12-12T07:14:20.886Z,8.80
2022-12-12T07:16:52.854Z,8.88
2022-12-12T07:19:26.818Z,9.13
2022-12-12T07:22:05.701Z,10.40
2022-12-12T07:24:41.026Z,10.65
2022-12-12T07:27:19.972Z,9.27
2022-12-12T07:30:15.390Z,8.98
2022-12-12T07:32:48.111Z,9.30
2022-12-12T07:35:20.054Z,9.50
2022-12-12T07:37:53.008Z,8.68
2022-12-12T07:40:24.982Z,9.05
2022-12-12T07:42:57.685Z,10.40
2022-12-12T07:45:30.425Z,9.50
2022-12-12T07:48:02.361Z,10.85
2022-12-12T07:50:35.186Z,11.00
2022-12-12T07:53:08.054Z,10.02
2022-12-12T07:55:41.330Z,13.27
2022-12-12T07:58:13.742Z,12.17
2022-12-12T08:00:46.565Z,10.98
2022-12-12T08:03:18.489Z,11.10
2022-12-12T08:09:06.141Z,9.45
2022-12-12T08:11:46.901Z,9.73
2022-12-12T08:14:19.139Z,11.70
2022-12-12T08:16:52.634Z,11.88
2022-12-12T08:19:24.931Z,10.55
2022-12-12T08:21:57.750Z,10.40
2022-12-12T08:24:30.189Z,10.07
2022-12-12T08:27:03.227Z,10.90
2022-12-12T08:29:38.831Z,10.88
2022-12-12T08:35:03.179Z,11.55
2022-12-12T08:37:36.134Z,11.20
2022-12-12T08:40:09.957Z,11.50
2022-12-12T08:42:42.650Z,12.00
2022-12-12T08:45:16.508Z,11.52
2022-12-12T08:47:49.162Z,11.20
2022-12-12T08:50:22.386Z,11.30
2022-12-12T08:52:54.515Z,11.40
2022-12-12T08:55:27.415Z,11.48
2022-12-12T08:58:00.077Z,11.07
2022-12-12T09:00:34.149Z,11.52
2022-12-12T09:03:06.195Z,11.03
2022-12-12T09:05:44.607Z,10.90
2022-12-12T09:08:17.038Z,12.40
2022-12-12T09:10:51.248Z,11.05
2022-12-12T09:13:23.243Z,12.80
2022-12-12T09:15:56.171Z,11.53
2022-12-12T09:18:28.481Z,12.23
2022-12-12T09:21:02.285Z,12.63
2022-12-12T09:23:34.873Z,12.57
2022-12-12T09:26:09.974Z,11.23
2022-12-12T09:28:42.578Z,11.50
2022-12-12T09:31:15.582Z,11.68
2022-12-12T09:33:47.589Z,12.00
2022-12-12T09:36:21.492Z,11.93
2022-12-12T09:38:54.190Z,11.27
2022-12-12T09:41:27.833Z,11.50
2022-12-12T09:44:08.254Z,10.43
2022-12-12T09:47:03.125Z,11.98
2022-12-12T09:49:54.392Z,10.15
2022-12-12T09:52:33.832Z,9.63
2022-12-12T09:55:42.190Z,10.43
2022-12-12T09:58:50.197Z,10.73
2022-12-12T10:01:53.301Z,10.23
2022-12-12T10:04:50.810Z,12.13
2022-12-12T10:07:47.190Z,10.75
2022-12-12T10:10:45.006Z,11.13
2022-12-12T10:13:24.249Z,11.10
2022-12-12T10:16:16.038Z,12.38
2022-12-12T10:18:52.451Z,11.00
2022-12-12T10:21:30.561Z,11.60
2022-12-12T10:24:10.178Z,10.83
2022-12-12T10:26:44.455Z,10.27
2022-12-12T10:29:22.553Z,10.98
2022-12-12T10:32:13.498Z,12.35
2022-12-12T10:35:00.758Z,12.00
2022-12-12T10:37:45.359Z,11.43
2022-12-12T10:41:02.179Z,10.77
2022-12-12T10:43:50.085Z,11.70
2022-12-12T10:46:44.359Z,11.43
2022-12-12T10:49:20.870Z,11.77
2022-12-12T10:51:56.158Z,10.97
2022-12-12T10:54:29.362Z,12.05
2022-12-12T10:57:20.262Z,12.18
2022-12-12T10:59:56.797Z,12.13
2022-12-12T11:02:54.314Z,12.85
2022-12-12T11:05:36.145Z,12.03
2022-12-12T11:08:25.525Z,12.18
2022-12-12T11:11:19.464Z,12.10
2022-12-12T11:14:03.419Z,13.18
2022-12-12T11:16:44.681Z,13.50
2022-12-12T11:19:22.741Z,13.03
2022-12-12T11:21:56.583Z,13.30
2022-12-12T11:24:33.220Z,13.40
2022-12-12T11:27:07.867Z,12.43
2022-12-12T11:29:47.517Z,12.20
2022-12-12T11:32:30.109Z,11.43
2022-12-12T11:35:07.522Z,12.73
2022-12-12T11:37:49.742Z,12.07
2022-12-12T11:40:26.128Z,12.20
2022-12-12T11:43:17.077Z,12.57
2022-12-12T11:46:16.340Z,12.73
2022-12-12T11:48:54.433Z,13.25
2022-12-12T11:51:45.301Z,12.45
2022-12-12T11:54:34.402Z,12.27
2022-12-12T11:57:16.230Z,15.32
2022-12-12T12:00:03.840Z,11.00
2022-12-12T12:03:07.956Z,13.00
2022-12-12T12:05:49.165Z,13.73
2022-12-12T12:08:35.805Z,12.95
2022-12-12T12:11:24.084Z,11.57
2022-12-12T12:14:33.389Z,13.60
2022-12-12T12:17:22.202Z,13.02
2022-12-12T12:20:09.515Z,13.30
2022-12-12T12:22:59.266Z,12.73
2022-12-12T12:25:36.189Z,13.48
2022-12-12T12:28:29.924Z,12.97
2022-12-12T12:31:36.095Z,12.02
2022-12-12T12:34:42.229Z,12.27
2022-12-12T12:37:37.203Z,11.05
2022-12-12T12:40:54.604Z,12.43
2022-12-12T12:43:48.302Z,11.60
2022-12-12T12:46:48.475Z,12.50
2022-12-12T12:49:29.648Z,12.63
2022-12-12T12:52:22.121Z,11.75
2022-12-12T12:54:57.769Z,13.23
2022-12-12T12:57:40.941Z,14.37
2022-12-12T13:00:27.160Z,13.40
2022-12-12T13:03:25.092Z,12.55
2022-12-12T13:06:05.627Z,14.45
2022-12-12T13:08:58.151Z,14.32
2022-12-12T13:11:39.200Z,13.87
2022-12-12T13:14:33.994Z,13.70
2022-12-12T13:17:15.397Z,12.27
2022-12-12T13:19:53.451Z,11.77
2022-12-12T13:22:50.909Z,12.35
2022-12-12T13:25:39.853Z,12.43
2022-12-12T13:28:25.286Z,12.50
2022-12-12T13:31:23.066Z,13.38
2022-12-12T13:34:08.140Z,12.30
2022-12-12T13:36:45.772Z,14.88
2022-12-12T13:39:37.832Z,11.87
2022-12-12T13:42:12.789Z,12.27
2022-12-12T13:44:48.889Z,12.60
2022-12-12T13:47:24.822Z,12.43
2022-12-12T13:50:09.579Z,12.90
2022-12-12T13:52:43.173Z,11.63
2022-12-12T13:55:18.601Z,12.52
2022-12-12T13:57:59.973Z,12.70
2022-12-12T14:00:37.421Z,12.35
2022-12-12T14:03:13.280Z,11.38
2022-12-12T14:05:51.418Z,10.83
2022-12-12T14:08:32.243Z,12.93
2022-12-12T14:11:11.114Z,13.00
2022-12-12T14:13:47.756Z,11.63
2022-12-12T14:16:27.069Z,12.30
2022-12-12T14:19:06.948Z,12.33
2022-12-12T14:21:46.826Z,12.13
2022-12-12T14:24:35.233Z,13.77
2022-12-12T14:27:11.349Z,12.60
2022-12-12T14:29:46.092Z,13.93
2022-12-12T14:32:44.520Z,11.97
2022-12-12T14:35:27.670Z,12.70
2022-12-12T14:38:27.721Z,12.73
2022-12-12T14:41:13.043Z,14.07
2022-12-12T14:44:36.928Z,12.98
2022-12-12T14:46:49.654Z,14.37
2022-12-12T14:49:22.222Z,14.77
2022-12-12T14:51:57.150Z,16.15
2022-12-12T14:54:34.135Z,16.42
2022-12-12T14:57:07.738Z,28.83
2022-12-12T14:59:42.927Z,20.10
2022-12-12T15:02:32.957Z,16.00
2022-12-12T15:05:08.311Z,15.95
2022-12-12T15:07:40.391Z,16.52
2022-12-12T15:10:28.631Z,15.90
2022-12-12T15:13:02.186Z,16.30
2022-12-12T15:15:35.284Z,16.73
2022-12-12T15:18:09.472Z,15.25
2022-12-12T15:20:42.164Z,14.57
2022-12-12T15:23:19.462Z,15.23
2022-12-12T15:25:56.243Z,16.40
2022-12-12T15:28:28.630Z,14.48
2022-12-12T15:31:01.768Z,15.35
2022-12-12T15:33:38.839Z,15.80
2022-12-12T15:36:29.434Z,15.40
2022-12-12T15:39:13.298Z,13.70
2022-12-12T15:41:46.692Z,16.20
2022-12-12T15:44:20.819Z,17.63
2022-12-12T15:46:54.147Z,19.77
2022-12-12T15:49:42.108Z,17.27
2022-12-12T15:52:29.748Z,14.80
2022-12-12T15:55:05.399Z,16.05
2022-12-12T15:57:49.854Z,15.18
2022-12-12T16:00:37.546Z,28.10
2022-12-12T16:03:09.711Z,17.00
2022-12-12T16:05:43.177Z,14.63
2022-12-12T16:08:45.369Z,15.57
2022-12-12T16:11:42.457Z,16.20
2022-12-12T16:14:25.298Z,15.02
2022-12-12T16:17:41.043Z,15.20
2022-12-12T16:20:14.999Z,15.27
2022-12-12T16:22:49.626Z,16.65
2022-12-12T16:25:30.526Z,15.80
2022-12-12T16:28:10.354Z,14.73
2022-12-12T16:30:45.956Z,16.08
2022-12-12T16:33:30.366Z,15.67
2022-12-12T16:36:09.214Z,14.68
2022-12-12T16:38:42.668Z,14.60
2022-12-12T16:41:18.215Z,14.65
2022-12-12T16:43:51.365Z,16.80
2022-12-12T16:46:26.152Z,13.93
2022-12-12T16:49:04.687Z,14.45
2022-12-12T16:51:41.561Z,14.55
2022-12-12T16:54:18.183Z,15.32
2022-12-12T16:56:52.591Z,14.68
2022-12-12T16:59:25.445Z,13.97
2022-12-12T17:01:57.538Z,15.35
2022-12-12T17:04:31.931Z,13.45
2022-12-12T17:07:07.979Z,15.63
2022-12-12T17:09:41.699Z,14.38
2022-12-12T17:12:15.450Z,14.97
2022-12-12T17:17:40.973Z,14.45
2022-12-12T17:20:14.486Z,16.23
2022-12-12T17:22:46.822Z,16.48
2022-12-12T17:25:21.926Z,15.07
2022-12-12T17:27:54.695Z,15.93
2022-12-12T17:30:27.090Z,15.55
2022-12-12T17:33:17.283Z,16.02
2022-12-12T17:36:06.568Z,16.90
2022-12-12T17:38:38.507Z,15.03
2022-12-12T17:41:11.388Z,15.25
2022-12-12T17:43:43.396Z,15.38
2022-12-12T17:46:18.615Z,15.73
2022-12-12T17:48:51.442Z,16.90
2022-12-12T17:51:24.318Z,15.17
2022-12-12T17:53:59.243Z,16.02
2022-12-12T17:56:32.137Z,16.92
2022-12-12T17:59:10.191Z,17.10
2022-12-12T18:01:42.098Z,16.45
2022-12-12T18:04:14.902Z,17.03
2022-12-12T18:06:47.448Z,15.55
2022-12-12T18:09:20.538Z,16.02
2022-12-12T18:11:52.425Z,17.13
2022-12-12T18:14:25.104Z,18.08
2022-12-12T18:16:57.562Z,16.27
2022-12-12T18:19:30.130Z,16.70
2022-12-12T18:22:03.629Z,16.38
2022-12-12T18:24:36.079Z,16.27
2022-12-12T18:27:08.168Z,16.65
2022-12-12T18:29:42.030Z,17.57
2022-12-12T18:32:14.032Z,16.40
2022-12-12T18:35:19.380Z,16.02
2022-12-12T18:37:52.751Z,16.10
2022-12-12T18:40:28.267Z,15.60
2022-12-12T18:43:04.590Z,15.93
2022-12-12T18:45:38.422Z,16.42
2022-12-12T18:48:10.564Z,16.90
2022-12-12T18:50:43.421Z,15.95
2022-12-12T18:53:17.248Z,17.17
2022-12-12T18:55:52.217Z,17.00
2022-12-12T18:58:30.474Z,16.23
2022-12-12T19:01:10.294Z,18.20
2022-12-12T19:03:49.864Z,18.10
2022-12-12T19:06:36.401Z,17.38
2022-12-12T19:09:17.739Z,18.43
2022-12-12T19:11:50.467Z,16.80
2022-12-12T19:14:23.352Z,18.08
2022-12-12T19:17:15.032Z,16.10
2022-12-12T19:19:51.819Z,15.98
2022-12-12T19:22:44.967Z,16.70
2022-12-12T19:25:25.065Z,16.75
2022-12-12T19:28:01.377Z,16.83
2022-12-12T19:30:42.746Z,16.45
2022-12-12T19:33:34.998Z,17.00
2022-12-12T19:36:24.522Z,15.23
2022-12-12T19:39:00.236Z,15.98
2022-12-12T19:41:33.696Z,8.75
2022-12-12T19:44:08.728Z,18.92
2022-12-12T19:46:44.065Z,19.77
2022-12-12T19:49:17.474Z,17.57
2022-12-12T19:51:49.394Z,16.45
2022-12-12T19:54:22.493Z,18.25
2022-12-12T19:56:54.785Z,17.33
2022-12-12T19:59:30.304Z,17.10
2022-12-12T20:02:02.811Z,18.00
2022-12-12T20:04:35.656Z,16.50
2022-12-12T20:07:07.772Z,18.30
2022-12-12T20:09:43.131Z,17.35
2022-12-12T20:12:20.230Z,18.05
2022-12-12T20:14:54.478Z,17.27
2022-12-12T20:17:29.281Z,18.40
2022-12-12T20:20:03.017Z,19.08
2022-12-12T20:22:35.778Z,17.48
2022-12-12T20:28:04.560Z,16.53
2022-12-12T20:30:37.612Z,17.75
2022-12-12T20:33:12.444Z,18.35
2022-12-12T20:35:49.509Z,17.98
2022-12-12T20:38:28.877Z,19.05
2022-12-12T20:41:04.591Z,17.63
2022-12-12T20:43:42.213Z,18.20
2022-12-12T20:46:19.583Z,18.65
2022-12-12T20:48:53.577Z,17.90
2022-12-12T20:51:54.895Z,18.60
2022-12-12T20:55:43.426Z,17.83
2022-12-12T20:58:17.544Z,15.38
2022-12-12T21:00:51.297Z,16.88
2022-12-12T21:03:26.454Z,17.88
2022-12-12T21:06:00.761Z,18.38
2022-12-12T21:08:32.954Z,18.30
2022-12-12T21:11:06.453Z,18.42
2022-12-12T21:13:38.809Z,18.92
2022-12-12T21:16:20.025Z,18.08
2022-12-12T21:18:56.374Z,18.60
2022-12-12T21:21:29.373Z,18.03
2022-12-12T21:24:02.329Z,17.23
2022-12-12T21:26:35.336Z,17.13
2022-12-12T21:29:12.274Z,18.30
2022-12-12T21:31:50.956Z,17.52
2022-12-12T21:34:24.596Z,17.23
2022-12-12T21:36:57.504Z,18.00
2022-12-12T21:39:29.868Z,17.40
2022-12-12T21:42:02.612Z,17.95
2022-12-12T21:44:35.262Z,17.95
2022-12-12T21:47:08.018Z,16.30
2022-12-12T21:49:40.004Z,17.98
2022-12-12T21:52:14.324Z,17.58
2022-12-12T21:54:46.235Z,15.43
2022-12-12T21:57:24.675Z,16.48
2022-12-12T21:59:56.988Z,16.93
2022-12-12T22:02:29.790Z,16.83
2022-12-12T22:05:01.883Z,17.58
2022-12-12T22:07:58.867Z,16.77
2022-12-12T22:10:31.222Z,17.35
2022-12-12T22:13:03.129Z,18.03
2022-12-12T22:15:35.864Z,17.33
2022-12-12T22:18:07.784Z,18.73
2022-12-12T22:20:40.561Z,17.02
2022-12-12T22:23:13.316Z,16.67
2022-12-12T22:25:45.646Z,17.93
2022-12-12T22:28:18.057Z,16.90
2022-12-12T22:30:50.777Z,17.42
2022-12-12T22:33:22.830Z,16.83
2022-12-12T22:35:59.900Z,17.08
2022-12-12T22:38:37.860Z,17.30
2022-12-12T22:41:10.702Z,16.77
2022-12-12T22:43:43.632Z,15.55
2022-12-12T22:46:16.635Z,16.02
2022-12-12T22:48:48.866Z,16.73
2022-12-12T22:51:26.350Z,18.33
2022-12-12T22:54:05.614Z,17.65
2022-12-12T22:56:39.513Z,15.65
2022-12-12T22:59:14.291Z,16.10
2022-12-12T23:01:46.216Z,15.85
2022-12-12T23:04:19.088Z,15.83
2022-12-12T23:06:51.475Z,15.13
2022-12-12T23:09:26.459Z,14.57
2022-12-12T23:11:58.620Z,16.00
2022-12-12T23:14:31.736Z,16.13
2022-12-12T23:19:59.703Z,15.10
2022-12-12T23:22:31.641Z,13.57
2022-12-12T23:25:05.312Z,16.95
2022-12-12T23:27:37.201Z,16.15
2022-12-12T23:30:11.311Z,14.77
2022-12-12T23:32:43.214Z,15.18
2022-12-12T23:35:16.837Z,15.25
2022-12-12T23:37:48.832Z,16.20
2022-12-12T23:40:21.617Z,17.63
2022-12-12T23:42:53.509Z,16.47
2022-12-12T23:45:26.301Z,16.90
2022-12-12T23:47:58.228Z,17.00
2022-12-12T23:50:30.998Z,17.80
2022-12-12T23:53:09.007Z,18.52
2022-12-12T23:55:43.551Z,17.33
2022-12-12T23:58:15.959Z,18.23
